sensor_id;sensor_type;location;lat;lon;timestamp;P1;durP1;ratioP1;P2;durP2;ratioP2
64018;SDS011;66942;52.138;5.216;2023-03-22T00:02:59;7.4;;;2.8;;
64018;SDS011;66942;52.138;5.216;2023-03-22T00:04:35;7.9;;;2.8;;
64018;SDS011;66942;52.138;5.216;2023-03-22T00:06:11;9.81;;;3.3;;
64018;SDS011;66942;52.138;5.216;2023-03-22T00:09:24;8.31;;;2.9;;
64018;SDS011;66942;52.138;5.216;2023-03-22T00:11:00;7.3;;;2.6;;
64018;SDS011;66942;52.138;5.216;2023-03-22T00:12:37;7.1;;;2.8;;
64018;SDS011;66942;52.138;5.216;2023-03-22T00:15:50;10.21;;;3.0;;
64018;SDS011;66942;52.138;5.216;2023-03-22T00:17:26;7.9;;;2.8;;
64018;SDS011;66942;52.138;5.216;2023-03-22T00:19:02;8.5;;;3.0;;
64018;SDS011;66942;52.138;5.216;2023-03-22T00:20:39;9.81;;;2.9;;
64018;SDS011;66942;52.138;5.216;2023-03-22T00:23:59;9.81;;;2.9;;
64018;SDS011;66942;52.138;5.216;2023-03-22T00:25:35;8.5;;;3.1;;
64018;SDS011;66942;52.138;5.216;2023-03-22T00:27:12;7.1;;;2.6;;
64018;SDS011;66942;52.138;5.216;2023-03-22T00:30:24;11.3;;;3.4;;
64018;SDS011;66942;52.138;5.216;2023-03-22T00:32:00;10.5;;;3.3;;
64018;SDS011;66942;52.138;5.216;2023-03-22T00:33:37;8.6;;;3.4;;
64018;SDS011;66942;52.138;5.216;2023-03-22T00:35:13;9.0;;;3.3;;
64018;SDS011;66942;52.138;5.216;2023-03-22T00:38:26;7.4;;;3.1;;
64018;SDS011;66942;52.138;5.216;2023-03-22T00:40:03;8.5;;;3.4;;
64018;SDS011;66942;52.138;5.216;2023-03-22T00:41:41;7.8;;;3.4;;
64018;SDS011;66942;52.138;5.216;2023-03-22T00:44:53;8.4;;;3.7;;
64018;SDS011;66942;52.138;5.216;2023-03-22T00:46:29;8.71;;;3.2;;
64018;SDS011;66942;52.138;5.216;2023-03-22T00:48:06;9.5;;;3.7;;
64018;SDS011;66942;52.138;5.216;2023-03-22T00:51:19;8.4;;;3.1;;
64018;SDS011;66942;52.138;5.216;2023-03-22T00:52:55;9.21;;;3.2;;
64018;SDS011;66942;52.138;5.216;2023-03-22T00:54:31;8.81;;;3.6;;
64018;SDS011;66942;52.138;5.216;2023-03-22T00:57:44;10.6;;;4.1;;
64018;SDS011;66942;52.138;5.216;2023-03-22T00:59:20;9.31;;;3.4;;
64018;SDS011;66942;52.138;5.216;2023-03-22T01:00:57;5.3;;;2.9;;
64018;SDS011;66942;52.138;5.216;2023-03-22T01:02:33;8.4;;;3.2;;
64018;SDS011;66942;52.138;5.216;2023-03-22T01:05:46;9.6;;;4.2;;
64018;SDS011;66942;52.138;5.216;2023-03-22T01:07:23;7.8;;;3.6;;
64018;SDS011;66942;52.138;5.216;2023-03-22T01:08:59;8.5;;;3.4;;
64018;SDS011;66942;52.138;5.216;2023-03-22T01:12:15;7.2;;;3.0;;
64018;SDS011;66942;52.138;5.216;2023-03-22T01:13:54;7.7;;;3.1;;
64018;SDS011;66942;52.138;5.216;2023-03-22T01:15:31;10.21;;;3.8;;
64018;SDS011;66942;52.138;5.216;2023-03-22T01:17:08;8.71;;;3.9;;
64018;SDS011;66942;52.138;5.216;2023-03-22T01:20:21;8.6;;;4.41;;
64018;SDS011;66942;52.138;5.216;2023-03-22T01:21:58;8.2;;;4.3;;
64018;SDS011;66942;52.138;5.216;2023-03-22T01:23:35;11.8;;;5.0;;
64018;SDS011;66942;52.138;5.216;2023-03-22T01:26:49;10.1;;;4.8;;
64018;SDS011;66942;52.138;5.216;2023-03-22T01:28:26;9.1;;;4.41;;
64018;SDS011;66942;52.138;5.216;2023-03-22T01:30:02;10.3;;;4.7;;
64018;SDS011;66942;52.138;5.216;2023-03-22T01:33:16;9.5;;;4.5;;
64018;SDS011;66942;52.138;5.216;2023-03-22T01:34:52;8.0;;;4.5;;
64018;SDS011;66942;52.138;5.216;2023-03-22T01:36:28;9.4;;;4.41;;
64018;SDS011;66942;52.138;5.216;2023-03-22T01:38:05;10.6;;;4.0;;
64018;SDS011;66942;52.138;5.216;2023-03-22T01:41:18;8.4;;;3.6;;
64018;SDS011;66942;52.138;5.216;2023-03-22T01:42:54;6.8;;;4.0;;
64018;SDS011;66942;52.138;5.216;2023-03-22T01:44:31;8.1;;;4.3;;
64018;SDS011;66942;52.138;5.216;2023-03-22T01:47:44;7.4;;;4.0;;
64018;SDS011;66942;52.138;5.216;2023-03-22T01:49:26;8.31;;;4.2;;
64018;SDS011;66942;52.138;5.216;2023-03-22T01:51:07;7.6;;;3.8;;
64018;SDS011;66942;52.138;5.216;2023-03-22T01:52:46;7.3;;;3.4;;
64018;SDS011;66942;52.138;5.216;2023-03-22T01:56:09;6.9;;;3.7;;
64018;SDS011;66942;52.138;5.216;2023-03-22T01:57:47;8.81;;;3.5;;
64018;SDS011;66942;52.138;5.216;2023-03-22T01:59:25;7.4;;;3.5;;
64018;SDS011;66942;52.138;5.216;2023-03-22T02:01:03;7.3;;;3.5;;
64018;SDS011;66942;52.138;5.216;2023-03-22T02:04:19;6.6;;;3.6;;
64018;SDS011;66942;52.138;5.216;2023-03-22T02:05:58;7.2;;;3.2;;
64018;SDS011;66942;52.138;5.216;2023-03-22T02:07:34;7.1;;;3.4;;
64018;SDS011;66942;52.138;5.216;2023-03-22T02:10:50;7.5;;;3.2;;
64018;SDS011;66942;52.138;5.216;2023-03-22T02:12:29;5.5;;;3.0;;
64018;SDS011;66942;52.138;5.216;2023-03-22T02:14:20;9.81;;;3.8;;
64018;SDS011;66942;52.138;5.216;2023-03-22T02:16:23;8.71;;;3.4;;
64018;SDS011;66942;52.138;5.216;2023-03-22T02:18:18;10.1;;;3.8;;
64018;SDS011;66942;52.138;5.216;2023-03-22T02:22:02;7.3;;;3.2;;
64018;SDS011;66942;52.138;5.216;2023-03-22T02:24:04;8.0;;;3.4;;
64018;SDS011;66942;52.138;5.216;2023-03-22T02:27:41;8.9;;;3.6;;
64018;SDS011;66942;52.138;5.216;2023-03-22T02:31:49;7.0;;;3.2;;
64018;SDS011;66942;52.138;5.216;2023-03-22T02:37:33;7.2;;;3.7;;
64018;SDS011;66942;52.138;5.216;2023-03-22T02:40:55;7.6;;;4.2;;
64018;SDS011;66942;52.138;5.216;2023-03-22T02:44:35;8.5;;;4.41;;
64018;SDS011;66942;52.138;5.216;2023-03-22T02:46:18;10.3;;;5.11;;
64018;SDS011;66942;52.138;5.216;2023-03-22T02:48:02;8.5;;;5.0;;
64018;SDS011;66942;52.138;5.216;2023-03-22T02:49:45;8.9;;;5.7;;
64018;SDS011;66942;52.138;5.216;2023-03-22T02:51:29;11.9;;;6.3;;
64018;SDS011;66942;52.138;5.216;2023-03-22T02:54:53;12.3;;;6.7;;
64018;SDS011;66942;52.138;5.216;2023-03-22T02:56:37;9.0;;;6.2;;
64018;SDS011;66942;52.138;5.216;2023-03-22T02:58:20;10.3;;;7.1;;
64018;SDS011;66942;52.138;5.216;2023-03-22T03:00:00;11.2;;;8.0;;
64018;SDS011;66942;52.138;5.216;2023-03-22T03:01:41;11.8;;;8.4;;
64018;SDS011;66942;52.138;5.216;2023-03-22T03:05:02;11.9;;;9.31;;
64018;SDS011;66942;52.138;5.216;2023-03-22T03:06:40;10.9;;;9.4;;
64018;SDS011;66942;52.138;5.216;2023-03-22T03:08:19;12.4;;;10.6;;
64018;SDS011;66942;52.138;5.216;2023-03-22T03:11:34;11.3;;;10.21;;
64018;SDS011;66942;52.138;5.216;2023-03-22T03:13:10;12.4;;;10.9;;
64018;SDS011;66942;52.138;5.216;2023-03-22T03:14:48;14.1;;;12.6;;
64018;SDS011;66942;52.138;5.216;2023-03-22T03:16:26;14.8;;;12.4;;
64018;SDS011;66942;52.138;5.216;2023-03-22T03:19:57;15.8;;;14.2;;
64018;SDS011;66942;52.138;5.216;2023-03-22T03:21:53;14.7;;;13.1;;
64018;SDS011;66942;52.138;5.216;2023-03-22T03:23:38;15.1;;;13.4;;
64018;SDS011;66942;52.138;5.216;2023-03-22T03:25:24;14.3;;;12.9;;
64018;SDS011;66942;52.138;5.216;2023-03-22T03:27:09;16.3;;;14.6;;
64018;SDS011;66942;52.138;5.216;2023-03-22T03:30:36;15.5;;;13.4;;
64018;SDS011;66942;52.138;5.216;2023-03-22T03:32:20;15.9;;;14.5;;
64018;SDS011;66942;52.138;5.216;2023-03-22T03:34:04;16.7;;;15.2;;
64018;SDS011;66942;52.138;5.216;2023-03-22T03:35:49;16.0;;;14.3;;
64018;SDS011;66942;52.138;5.216;2023-03-22T03:37:30;17.8;;;16.0;;
64018;SDS011;66942;52.138;5.216;2023-03-22T03:40:50;17.91;;;16.2;;
64018;SDS011;66942;52.138;5.216;2023-03-22T03:42:32;18.5;;;16.7;;
64018;SDS011;66942;52.138;5.216;2023-03-22T03:44:11;18.2;;;16.5;;
64018;SDS011;66942;52.138;5.216;2023-03-22T03:45:50;18.41;;;16.61;;
64018;SDS011;66942;52.138;5.216;2023-03-22T03:49:03;18.41;;;16.61;;
64018;SDS011;66942;52.138;5.216;2023-03-22T03:50:43;19.7;;;18.0;;
64018;SDS011;66942;52.138;5.216;2023-03-22T03:52:20;20.0;;;17.91;;
64018;SDS011;66942;52.138;5.216;2023-03-22T03:55:32;19.61;;;17.7;;
64018;SDS011;66942;52.138;5.216;2023-03-22T03:57:08;18.91;;;17.2;;
64018;SDS011;66942;52.138;5.216;2023-03-22T03:58:44;18.91;;;17.0;;
64018;SDS011;66942;52.138;5.216;2023-03-22T04:00:20;19.41;;;17.41;;
64018;SDS011;66942;52.138;5.216;2023-03-22T04:03:33;19.3;;;17.3;;
64018;SDS011;66942;52.138;5.216;2023-03-22T04:05:10;19.7;;;17.61;;
64018;SDS011;66942;52.138;5.216;2023-03-22T04:06:48;19.0;;;17.2;;
64018;SDS011;66942;52.138;5.216;2023-03-22T04:10:00;19.3;;;17.41;;
64018;SDS011;66942;52.138;5.216;2023-03-22T04:11:36;18.7;;;16.8;;
64018;SDS011;66942;52.138;5.216;2023-03-22T04:13:12;18.8;;;16.9;;
64018;SDS011;66942;52.138;5.216;2023-03-22T04:16:24;18.8;;;16.9;;
64018;SDS011;66942;52.138;5.216;2023-03-22T04:18:00;19.41;;;17.41;;
64018;SDS011;66942;52.138;5.216;2023-03-22T04:19:37;19.11;;;17.2;;
64018;SDS011;66942;52.138;5.216;2023-03-22T04:21:13;19.3;;;17.3;;
64018;SDS011;66942;52.138;5.216;2023-03-22T04:24:25;18.5;;;16.8;;
64018;SDS011;66942;52.138;5.216;2023-03-22T04:26:02;18.8;;;17.0;;
64018;SDS011;66942;52.138;5.216;2023-03-22T04:27:39;18.7;;;17.0;;
64018;SDS011;66942;52.138;5.216;2023-03-22T04:30:53;17.8;;;16.11;;
64018;SDS011;66942;52.138;5.216;2023-03-22T04:32:31;18.0;;;16.3;;
64018;SDS011;66942;52.138;5.216;2023-03-22T04:34:07;17.7;;;16.11;;
64018;SDS011;66942;52.138;5.216;2023-03-22T04:37:19;17.8;;;16.0;;
64018;SDS011;66942;52.138;5.216;2023-03-22T04:38:56;18.5;;;16.7;;
64018;SDS011;66942;52.138;5.216;2023-03-22T04:40:32;17.11;;;15.5;;
64018;SDS011;66942;52.138;5.216;2023-03-22T04:42:08;18.7;;;16.9;;
64018;SDS011;66942;52.138;5.216;2023-03-22T04:45:22;16.8;;;15.3;;
64018;SDS011;66942;52.138;5.216;2023-03-22T04:46:59;18.8;;;16.11;;
64018;SDS011;66942;52.138;5.216;2023-03-22T04:48:35;17.0;;;15.5;;
64018;SDS011;66942;52.138;5.216;2023-03-22T04:51:48;17.5;;;15.8;;
64018;SDS011;66942;52.138;5.216;2023-03-22T04:53:24;17.3;;;15.6;;
64018;SDS011;66942;52.138;5.216;2023-03-22T04:55:00;16.11;;;14.6;;
64018;SDS011;66942;52.138;5.216;2023-03-22T04:58:13;16.9;;;15.1;;
64018;SDS011;66942;52.138;5.216;2023-03-22T04:59:49;17.3;;;15.6;;
64018;SDS011;66942;52.138;5.216;2023-03-22T05:01:25;17.11;;;15.5;;
64018;SDS011;66942;52.138;5.216;2023-03-22T05:03:01;16.9;;;15.2;;
64018;SDS011;66942;52.138;5.216;2023-03-22T05:06:14;16.61;;;15.0;;
64018;SDS011;66942;52.138;5.216;2023-03-22T05:07:50;17.2;;;15.6;;
64018;SDS011;66942;52.138;5.216;2023-03-22T05:09:26;16.7;;;15.2;;
64018;SDS011;66942;52.138;5.216;2023-03-22T05:12:42;16.5;;;15.0;;
64018;SDS011;66942;52.138;5.216;2023-03-22T05:14:18;16.11;;;14.6;;
64018;SDS011;66942;52.138;5.216;2023-03-22T05:15:54;17.5;;;15.9;;
64018;SDS011;66942;52.138;5.216;2023-03-22T05:19:06;16.2;;;14.7;;
64018;SDS011;66942;52.138;5.216;2023-03-22T05:20:43;16.7;;;15.1;;
64018;SDS011;66942;52.138;5.216;2023-03-22T05:22:19;15.2;;;13.8;;
64018;SDS011;66942;52.138;5.216;2023-03-22T05:25:32;15.3;;;13.8;;
64018;SDS011;66942;52.138;5.216;2023-03-22T05:27:08;16.7;;;14.2;;
64018;SDS011;66942;52.138;5.216;2023-03-22T05:28:44;16.2;;;14.7;;
64018;SDS011;66942;52.138;5.216;2023-03-22T05:30:20;15.3;;;13.8;;
64018;SDS011;66942;52.138;5.216;2023-03-22T05:33:33;17.7;;;14.8;;
64018;SDS011;66942;52.138;5.216;2023-03-22T05:35:09;15.8;;;14.1;;
64018;SDS011;66942;52.138;5.216;2023-03-22T05:36:46;15.6;;;14.0;;
64018;SDS011;66942;52.138;5.216;2023-03-22T05:39:58;15.1;;;13.6;;
64018;SDS011;66942;52.138;5.216;2023-03-22T05:41:34;15.3;;;13.7;;
64018;SDS011;66942;52.138;5.216;2023-03-22T05:43:11;14.5;;;13.1;;
64018;SDS011;66942;52.138;5.216;2023-03-22T05:46:22;15.6;;;14.0;;
64018;SDS011;66942;52.138;5.216;2023-03-22T05:47:58;15.6;;;13.2;;
64018;SDS011;66942;52.138;5.216;2023-03-22T05:49:35;14.8;;;13.2;;
64018;SDS011;66942;52.138;5.216;2023-03-22T05:51:11;14.8;;;13.2;;
64018;SDS011;66942;52.138;5.216;2023-03-22T05:54:25;13.7;;;12.4;;
64018;SDS011;66942;52.138;5.216;2023-03-22T05:56:01;14.0;;;12.6;;
64018;SDS011;66942;52.138;5.216;2023-03-22T05:57:38;13.7;;;12.4;;
64018;SDS011;66942;52.138;5.216;2023-03-22T06:00:51;13.4;;;12.1;;
64018;SDS011;66942;52.138;5.216;2023-03-22T06:02:27;13.7;;;12.2;;
64018;SDS011;66942;52.138;5.216;2023-03-22T06:04:03;13.2;;;11.9;;
64018;SDS011;66942;52.138;5.216;2023-03-22T06:07:16;12.5;;;11.1;;
64018;SDS011;66942;52.138;5.216;2023-03-22T06:08:51;11.7;;;10.6;;
64018;SDS011;66942;52.138;5.216;2023-03-22T06:10:28;13.3;;;11.9;;
64018;SDS011;66942;52.138;5.216;2023-03-22T06:12:04;11.8;;;10.7;;
64018;SDS011;66942;52.138;5.216;2023-03-22T06:15:17;13.3;;;10.3;;
64018;SDS011;66942;52.138;5.216;2023-03-22T06:16:54;13.2;;;10.1;;
64018;SDS011;66942;52.138;5.216;2023-03-22T06:18:30;11.7;;;10.5;;
64018;SDS011;66942;52.138;5.216;2023-03-22T06:21:46;11.5;;;9.6;;
64018;SDS011;66942;52.138;5.216;2023-03-22T06:23:22;14.1;;;10.4;;
64018;SDS011;66942;52.138;5.216;2023-03-22T06:24:59;13.1;;;10.0;;
64018;SDS011;66942;52.138;5.216;2023-03-22T06:28:11;11.5;;;10.3;;
64018;SDS011;66942;52.138;5.216;2023-03-22T06:29:48;11.2;;;9.21;;
64018;SDS011;66942;52.138;5.216;2023-03-22T06:31:23;10.8;;;9.4;;
64018;SDS011;66942;52.138;5.216;2023-03-22T06:33:00;10.3;;;8.1;;
64018;SDS011;66942;52.138;5.216;2023-03-22T06:36:12;9.5;;;8.5;;
64018;SDS011;66942;52.138;5.216;2023-03-22T06:37:48;9.1;;;8.2;;
64018;SDS011;66942;52.138;5.216;2023-03-22T06:39:25;9.4;;;8.2;;
64018;SDS011;66942;52.138;5.216;2023-03-22T06:42:37;12.3;;;7.6;;
64018;SDS011;66942;52.138;5.216;2023-03-22T06:44:13;11.5;;;7.9;;
64018;SDS011;66942;52.138;5.216;2023-03-22T06:45:50;10.21;;;7.4;;
64018;SDS011;66942;52.138;5.216;2023-03-22T06:49:02;10.4;;;7.6;;
64018;SDS011;66942;52.138;5.216;2023-03-22T06:50:40;11.0;;;7.9;;
64018;SDS011;66942;52.138;5.216;2023-03-22T06:52:16;10.3;;;7.3;;
64018;SDS011;66942;52.138;5.216;2023-03-22T06:55:28;9.21;;;6.7;;
64018;SDS011;66942;52.138;5.216;2023-03-22T06:57:04;9.81;;;6.9;;
64018;SDS011;66942;52.138;5.216;2023-03-22T06:58:40;8.9;;;6.8;;
64018;SDS011;66942;52.138;5.216;2023-03-22T07:00:17;10.5;;;6.8;;
64018;SDS011;66942;52.138;5.216;2023-03-22T07:03:30;9.21;;;6.7;;
64018;SDS011;66942;52.138;5.216;2023-03-22T07:05:06;11.7;;;6.9;;
64018;SDS011;66942;52.138;5.216;2023-03-22T07:06:43;8.6;;;6.2;;
64018;SDS011;66942;52.138;5.216;2023-03-22T07:09:55;8.5;;;6.5;;
64018;SDS011;66942;52.138;5.216;2023-03-22T07:11:32;9.5;;;5.9;;
64018;SDS011;66942;52.138;5.216;2023-03-22T07:13:08;10.4;;;5.9;;
64018;SDS011;66942;52.138;5.216;2023-03-22T07:16:20;9.0;;;5.7;;
64018;SDS011;66942;52.138;5.216;2023-03-22T07:17:56;9.0;;;5.7;;
64018;SDS011;66942;52.138;5.216;2023-03-22T07:19:33;11.0;;;5.6;;
64018;SDS011;66942;52.138;5.216;2023-03-22T07:21:09;8.71;;;5.11;;
64018;SDS011;66942;52.138;5.216;2023-03-22T07:24:20;8.81;;;4.91;;
64018;SDS011;66942;52.138;5.216;2023-03-22T07:25:56;9.1;;;4.8;;
64018;SDS011;66942;52.138;5.216;2023-03-22T07:27:32;8.6;;;5.11;;
64018;SDS011;66942;52.138;5.216;2023-03-22T07:30:44;10.3;;;4.91;;
64018;SDS011;66942;52.138;5.216;2023-03-22T07:32:21;8.0;;;4.61;;
64018;SDS011;66942;52.138;5.216;2023-03-22T07:33:57;9.31;;;4.41;;
64018;SDS011;66942;52.138;5.216;2023-03-22T07:37:10;7.3;;;4.1;;
64018;SDS011;66942;52.138;5.216;2023-03-22T07:38:46;8.81;;;4.0;;
64018;SDS011;66942;52.138;5.216;2023-03-22T07:40:22;10.21;;;4.61;;
64018;SDS011;66942;52.138;5.216;2023-03-22T07:41:59;9.31;;;4.61;;
64018;SDS011;66942;52.138;5.216;2023-03-22T07:45:12;9.0;;;4.1;;
64018;SDS011;66942;52.138;5.216;2023-03-22T07:46:48;10.0;;;4.61;;
64018;SDS011;66942;52.138;5.216;2023-03-22T07:48:24;9.71;;;3.7;;
64018;SDS011;66942;52.138;5.216;2023-03-22T07:51:36;8.81;;;3.8;;
64018;SDS011;66942;52.138;5.216;2023-03-22T07:53:13;9.1;;;4.41;;
64018;SDS011;66942;52.138;5.216;2023-03-22T07:54:49;7.0;;;3.2;;
64018;SDS011;66942;52.138;5.216;2023-03-22T07:58:02;11.7;;;4.5;;
64018;SDS011;66942;52.138;5.216;2023-03-22T07:59:39;9.0;;;3.7;;
64018;SDS011;66942;52.138;5.216;2023-03-22T08:01:15;8.2;;;3.8;;
64018;SDS011;66942;52.138;5.216;2023-03-22T08:04:27;7.4;;;3.6;;
64018;SDS011;66942;52.138;5.216;2023-03-22T08:06:04;11.6;;;4.41;;
64018;SDS011;66942;52.138;5.216;2023-03-22T08:07:43;9.21;;;3.7;;
64018;SDS011;66942;52.138;5.216;2023-03-22T08:09:19;8.2;;;3.1;;
64018;SDS011;66942;52.138;5.216;2023-03-22T08:12:31;6.1;;;3.2;;
64018;SDS011;66942;52.138;5.216;2023-03-22T08:14:07;8.1;;;3.4;;
64018;SDS011;66942;52.138;5.216;2023-03-22T08:15:44;12.4;;;3.7;;
64018;SDS011;66942;52.138;5.216;2023-03-22T08:18:56;9.71;;;3.6;;
64018;SDS011;66942;52.138;5.216;2023-03-22T08:20:32;7.3;;;3.0;;
64018;SDS011;66942;52.138;5.216;2023-03-22T08:22:09;9.6;;;3.9;;
64018;SDS011;66942;52.138;5.216;2023-03-22T08:25:21;10.6;;;3.2;;
64018;SDS011;66942;52.138;5.216;2023-03-22T08:26:57;9.21;;;3.7;;
64018;SDS011;66942;52.138;5.216;2023-03-22T08:28:33;8.81;;;3.3;;
64018;SDS011;66942;52.138;5.216;2023-03-22T08:30:10;10.4;;;3.7;;
64018;SDS011;66942;52.138;5.216;2023-03-22T08:33:23;8.2;;;3.3;;
64018;SDS011;66942;52.138;5.216;2023-03-22T08:34:59;7.6;;;3.6;;
64018;SDS011;66942;52.138;5.216;2023-03-22T08:36:35;9.71;;;3.7;;
64018;SDS011;66942;52.138;5.216;2023-03-22T08:39:48;7.8;;;3.3;;
64018;SDS011;66942;52.138;5.216;2023-03-22T08:41:25;12.2;;;4.41;;
64018;SDS011;66942;52.138;5.216;2023-03-22T08:43:01;12.7;;;3.6;;
64018;SDS011;66942;52.138;5.216;2023-03-22T08:46:15;7.6;;;3.5;;
64018;SDS011;66942;52.138;5.216;2023-03-22T08:47:51;9.21;;;3.5;;
64018;SDS011;66942;52.138;5.216;2023-03-22T08:49:27;8.5;;;3.6;;
64018;SDS011;66942;52.138;5.216;2023-03-22T08:51:03;10.21;;;3.8;;
64018;SDS011;66942;52.138;5.216;2023-03-22T08:54:17;7.7;;;3.4;;
64018;SDS011;66942;52.138;5.216;2023-03-22T08:55:52;11.9;;;4.2;;
64018;SDS011;66942;52.138;5.216;2023-03-22T08:57:29;7.6;;;3.5;;
64018;SDS011;66942;52.138;5.216;2023-03-22T09:00:43;8.9;;;3.7;;
64018;SDS011;66942;52.138;5.216;2023-03-22T09:02:19;8.2;;;3.5;;
64018;SDS011;66942;52.138;5.216;2023-03-22T09:03:55;10.1;;;4.1;;
64018;SDS011;66942;52.138;5.216;2023-03-22T09:07:07;9.6;;;4.0;;
64018;SDS011;66942;52.138;5.216;2023-03-22T09:08:44;8.0;;;3.5;;
64018;SDS011;66942;52.138;5.216;2023-03-22T09:10:20;8.1;;;3.3;;
64018;SDS011;66942;52.138;5.216;2023-03-22T09:13:32;8.71;;;3.4;;
64018;SDS011;66942;52.138;5.216;2023-03-22T09:15:08;8.81;;;3.8;;
64018;SDS011;66942;52.138;5.216;2023-03-22T09:16:45;7.9;;;3.8;;
64018;SDS011;66942;52.138;5.216;2023-03-22T09:18:22;7.3;;;3.8;;
64018;SDS011;66942;52.138;5.216;2023-03-22T09:21:36;11.6;;;4.2;;
64018;SDS011;66942;52.138;5.216;2023-03-22T09:23:13;10.21;;;4.1;;
64018;SDS011;66942;52.138;5.216;2023-03-22T09:24:49;8.6;;;3.5;;
64018;SDS011;66942;52.138;5.216;2023-03-22T09:28:03;8.1;;;3.8;;
64018;SDS011;66942;52.138;5.216;2023-03-22T09:29:39;7.7;;;3.7;;
64018;SDS011;66942;52.138;5.216;2023-03-22T09:31:15;10.8;;;4.41;;
64018;SDS011;66942;52.138;5.216;2023-03-22T09:34:29;9.9;;;4.1;;
64018;SDS011;66942;52.138;5.216;2023-03-22T09:36:05;9.81;;;4.2;;
64018;SDS011;66942;52.138;5.216;2023-03-22T09:37:42;10.8;;;4.41;;
64018;SDS011;66942;52.138;5.216;2023-03-22T09:39:18;10.9;;;4.5;;
64018;SDS011;66942;52.138;5.216;2023-03-22T09:42:36;8.81;;;3.8;;
64018;SDS011;66942;52.138;5.216;2023-03-22T09:44:17;9.71;;;4.61;;
64018;SDS011;66942;52.138;5.216;2023-03-22T09:46:01;9.9;;;4.1;;
64018;SDS011;66942;52.138;5.216;2023-03-22T09:47:44;14.2;;;4.61;;
64018;SDS011;66942;52.138;5.216;2023-03-22T09:51:12;11.1;;;4.5;;
64018;SDS011;66942;52.138;5.216;2023-03-22T09:52:58;7.9;;;4.61;;
64018;SDS011;66942;52.138;5.216;2023-03-22T09:54:35;10.4;;;4.1;;
64018;SDS011;66942;52.138;5.216;2023-03-22T09:56:16;7.8;;;4.0;;
64018;SDS011;66942;52.138;5.216;2023-03-22T09:59:43;10.21;;;4.0;;
64018;SDS011;66942;52.138;5.216;2023-03-22T10:01:28;9.81;;;4.41;;
64018;SDS011;66942;52.138;5.216;2023-03-22T10:03:14;10.5;;;4.1;;
64018;SDS011;66942;52.138;5.216;2023-03-22T10:05:01;9.71;;;4.41;;
64018;SDS011;66942;52.138;5.216;2023-03-22T10:06:47;9.71;;;3.9;;
64018;SDS011;66942;52.138;5.216;2023-03-22T10:08:32;7.5;;;3.7;;
64018;SDS011;66942;52.138;5.216;2023-03-22T10:11:59;9.71;;;4.7;;
64018;SDS011;66942;52.138;5.216;2023-03-22T10:13:45;7.5;;;3.8;;
64018;SDS011;66942;52.138;5.216;2023-03-22T10:15:33;7.1;;;4.0;;
64018;SDS011;66942;52.138;5.216;2023-03-22T10:17:13;9.0;;;3.7;;
64018;SDS011;66942;52.138;5.216;2023-03-22T10:20:38;7.8;;;4.2;;
64018;SDS011;66942;52.138;5.216;2023-03-22T10:22:22;7.7;;;3.8;;
64018;SDS011;66942;52.138;5.216;2023-03-22T10:24:06;9.71;;;4.41;;
64018;SDS011;66942;52.138;5.216;2023-03-22T10:25:50;9.71;;;4.1;;
64018;SDS011;66942;52.138;5.216;2023-03-22T10:27:29;9.71;;;4.0;;
64018;SDS011;66942;52.138;5.216;2023-03-22T10:30:51;10.21;;;4.3;;
64018;SDS011;66942;52.138;5.216;2023-03-22T10:32:31;8.2;;;3.5;;
64018;SDS011;66942;52.138;5.216;2023-03-22T10:34:18;8.1;;;3.9;;
64018;SDS011;66942;52.138;5.216;2023-03-22T10:35:57;10.4;;;4.1;;
64018;SDS011;66942;52.138;5.216;2023-03-22T10:39:17;8.1;;;3.7;;
64018;SDS011;66942;52.138;5.216;2023-03-22T10:41:07;9.0;;;3.9;;
64018;SDS011;66942;52.138;5.216;2023-03-22T10:42:46;9.9;;;4.1;;
64018;SDS011;66942;52.138;5.216;2023-03-22T10:44:29;8.6;;;3.8;;
64018;SDS011;66942;52.138;5.216;2023-03-22T10:46:11;9.31;;;4.0;;
64018;SDS011;66942;52.138;5.216;2023-03-22T10:49:34;8.81;;;4.0;;
64018;SDS011;66942;52.138;5.216;2023-03-22T10:51:18;8.6;;;3.7;;
64018;SDS011;66942;52.138;5.216;2023-03-22T10:53:02;8.4;;;4.1;;
64018;SDS011;66942;52.138;5.216;2023-03-22T10:54:41;9.6;;;4.2;;
64018;SDS011;66942;52.138;5.216;2023-03-22T10:57:56;7.5;;;3.8;;
64018;SDS011;66942;52.138;5.216;2023-03-22T10:59:45;7.8;;;3.8;;
64018;SDS011;66942;52.138;5.216;2023-03-22T11:01:24;10.5;;;4.3;;
64018;SDS011;66942;52.138;5.216;2023-03-22T11:03:04;8.0;;;3.8;;
64018;SDS011;66942;52.138;5.216;2023-03-22T11:06:23;10.0;;;4.3;;
64018;SDS011;66942;52.138;5.216;2023-03-22T11:08:02;7.0;;;4.2;;
64018;SDS011;66942;52.138;5.216;2023-03-22T11:09:37;10.4;;;4.41;;
64018;SDS011;66942;52.138;5.216;2023-03-22T11:11:16;8.1;;;3.9;;
64018;SDS011;66942;52.138;5.216;2023-03-22T11:14:47;7.6;;;3.8;;
64018;SDS011;66942;52.138;5.216;2023-03-22T11:16:26;7.6;;;3.8;;
64018;SDS011;66942;52.138;5.216;2023-03-22T11:18:05;8.81;;;4.5;;
64018;SDS011;66942;52.138;5.216;2023-03-22T11:19:49;8.31;;;3.8;;
64018;SDS011;66942;52.138;5.216;2023-03-22T11:23:09;8.5;;;3.8;;
64018;SDS011;66942;52.138;5.216;2023-03-22T11:24:49;8.4;;;3.5;;
64018;SDS011;66942;52.138;5.216;2023-03-22T11:26:28;9.5;;;4.0;;
64018;SDS011;66942;52.138;5.216;2023-03-22T11:28:08;9.4;;;4.41;;
64018;SDS011;66942;52.138;5.216;2023-03-22T11:31:47;7.3;;;3.5;;
64018;SDS011;66942;52.138;5.216;2023-03-22T11:33:31;5.9;;;3.4;;
64018;SDS011;66942;52.138;5.216;2023-03-22T11:35:10;8.4;;;3.9;;
64018;SDS011;66942;52.138;5.216;2023-03-22T11:36:50;7.4;;;3.4;;
64018;SDS011;66942;52.138;5.216;2023-03-22T11:38:27;6.0;;;3.4;;
64018;SDS011;66942;52.138;5.216;2023-03-22T11:41:53;7.9;;;3.7;;
64018;SDS011;66942;52.138;5.216;2023-03-22T11:43:33;7.5;;;3.5;;
64018;SDS011;66942;52.138;5.216;2023-03-22T11:45:13;6.5;;;3.7;;
64018;SDS011;66942;52.138;5.216;2023-03-22T11:46:51;6.0;;;3.1;;
64018;SDS011;66942;52.138;5.216;2023-03-22T11:50:19;4.8;;;2.9;;
64018;SDS011;66942;52.138;5.216;2023-03-22T11:52:06;5.6;;;3.0;;
64018;SDS011;66942;52.138;5.216;2023-03-22T11:53:47;7.2;;;3.5;;
64018;SDS011;66942;52.138;5.216;2023-03-22T11:55:23;6.2;;;3.0;;
64018;SDS011;66942;52.138;5.216;2023-03-22T11:58:43;5.7;;;3.3;;
64018;SDS011;66942;52.138;5.216;2023-03-22T12:00:39;6.5;;;3.4;;
64018;SDS011;66942;52.138;5.216;2023-03-22T12:02:18;7.1;;;3.8;;
64018;SDS011;66942;52.138;5.216;2023-03-22T12:04:02;8.0;;;3.8;;
64018;SDS011;66942;52.138;5.216;2023-03-22T12:05:43;5.6;;;3.0;;
64018;SDS011;66942;52.138;5.216;2023-03-22T12:09:04;5.9;;;3.7;;
64018;SDS011;66942;52.138;5.216;2023-03-22T12:10:48;6.9;;;3.7;;
64018;SDS011;66942;52.138;5.216;2023-03-22T12:12:28;5.8;;;3.3;;
64018;SDS011;66942;52.138;5.216;2023-03-22T12:14:13;6.5;;;3.6;;
64018;SDS011;66942;52.138;5.216;2023-03-22T12:17:34;5.3;;;3.4;;
64018;SDS011;66942;52.138;5.216;2023-03-22T12:19:18;7.4;;;3.4;;
64018;SDS011;66942;52.138;5.216;2023-03-22T12:21:11;5.4;;;3.2;;
64018;SDS011;66942;52.138;5.216;2023-03-22T12:22:47;7.6;;;3.7;;
64018;SDS011;66942;52.138;5.216;2023-03-22T12:24:28;5.9;;;3.1;;
64018;SDS011;66942;52.138;5.216;2023-03-22T12:27:52;6.4;;;2.9;;
64018;SDS011;66942;52.138;5.216;2023-03-22T12:29:32;6.5;;;3.1;;
64018;SDS011;66942;52.138;5.216;2023-03-22T12:31:12;5.8;;;3.3;;
64018;SDS011;66942;52.138;5.216;2023-03-22T12:32:55;4.8;;;3.2;;
64018;SDS011;66942;52.138;5.216;2023-03-22T12:36:19;6.4;;;3.2;;
64018;SDS011;66942;52.138;5.216;2023-03-22T12:38:05;6.5;;;3.0;;
64018;SDS011;66942;52.138;5.216;2023-03-22T12:40:01;6.3;;;3.3;;
64018;SDS011;66942;52.138;5.216;2023-03-22T12:41:43;6.2;;;3.0;;
64018;SDS011;66942;52.138;5.216;2023-03-22T12:43:26;6.1;;;3.4;;
64018;SDS011;66942;52.138;5.216;2023-03-22T12:46:56;6.5;;;3.6;;
64018;SDS011;66942;52.138;5.216;2023-03-22T12:48:38;4.8;;;2.7;;
64018;SDS011;66942;52.138;5.216;2023-03-22T12:50:20;6.1;;;3.5;;
64018;SDS011;66942;52.138;5.216;2023-03-22T12:52:03;6.2;;;3.3;;
64018;SDS011;66942;52.138;5.216;2023-03-22T12:53:53;6.5;;;3.1;;
64018;SDS011;66942;52.138;5.216;2023-03-22T12:57:11;5.0;;;3.3;;
64018;SDS011;66942;52.138;5.216;2023-03-22T12:58:49;5.8;;;3.3;;
64018;SDS011;66942;52.138;5.216;2023-03-22T13:00:31;5.2;;;3.3;;